createdAt,value
2022-09-05T00:01:41.281Z,22.51
2022-09-05T00:04:25.088Z,22.71
2022-09-05T00:07:10.743Z,22.49
2022-09-05T00:10:08.942Z,22.78
2022-09-05T00:12:36.067Z,22.22
2022-09-05T00:15:17.121Z,22.68
2022-09-05T00:18:32.462Z,22.95
2022-09-05T00:24:27.649Z,22.88
2022-09-05T00:24:37.914Z,22.42
2022-09-05T00:27:01.222Z,22.50
2022-09-05T00:31:07.720Z,22.48
2022-09-05T00:32:49.531Z,22.42
2022-09-05T00:35:35.577Z,22.15
2022-09-05T00:38:15.266Z,22.23
2022-09-05T00:40:54.333Z,22.56
2022-09-05T00:43:28.250Z,22.95
2022-09-05T00:46:13.538Z,21.94
2022-09-05T00:48:49.395Z,22.50
2022-09-05T00:51:54.250Z,22.87
2022-09-05T00:54:28.379Z,23.08
2022-09-05T00:57:30.482Z,22.66
2022-09-05T01:00:25.589Z,23.01
2022-09-05T01:03:43.371Z,22.29
2022-09-05T01:06:33.836Z,22.70
2022-09-05T01:09:24.697Z,22.41
2022-09-05T01:11:54.232Z,22.65
2022-09-05T01:14:32.747Z,22.59
2022-09-05T01:17:17.316Z,22.37
2022-09-05T01:20:18.885Z,22.37
2022-09-05T01:23:08.541Z,22.20
2022-09-05T01:26:04.260Z,22.30
2022-09-05T01:29:15.390Z,22.72
2022-09-05T01:32:10.335Z,22.79
2022-09-05T01:35:01.388Z,21.85
2022-09-05T01:38:10.136Z,22.74
2022-09-05T01:41:03.168Z,22.53
2022-09-05T01:43:52.385Z,22.93
2022-09-05T01:46:34.780Z,22.68
2022-09-05T01:49:33.785Z,22.42
2022-09-05T01:52:22.946Z,22.48
2022-09-05T01:56:04.594Z,22.58
2022-09-05T01:59:01.550Z,22.46
2022-09-05T02:01:40.007Z,22.36
2022-09-05T02:04:41.620Z,22.64
2022-09-05T02:07:44.557Z,22.71
2022-09-05T02:10:48.735Z,22.15
2022-09-05T02:13:36.133Z,22.67
2022-09-05T02:16:21.570Z,22.64
2022-09-05T02:19:01.335Z,21.87
2022-09-05T02:21:40.670Z,22.27
2022-09-05T02:24:41.522Z,22.36
2022-09-05T02:27:47.585Z,22.13
2022-09-05T02:30:16.859Z,22.13
2022-09-05T02:33:02.235Z,21.83
2022-09-05T02:35:37.908Z,22.22
2022-09-05T02:40:00.948Z,22.30
2022-09-05T02:45:20.340Z,22.63
2022-09-05T02:45:23.947Z,22.71
2022-09-05T02:47:24.326Z,22.47
2022-09-05T02:55:25.245Z,22.21
2022-09-05T02:57:34.739Z,22.17
2022-09-05T02:58:05.536Z,22.09
2022-09-05T02:59:10.048Z,22.00
2022-09-05T03:01:55.584Z,22.28
2022-09-05T03:04:48.768Z,22.30
2022-09-05T03:07:29.609Z,22.40
2022-09-05T03:10:53.643Z,22.25
2022-09-05T03:13:30.389Z,21.67
2022-09-05T03:16:08.943Z,21.93
2022-09-05T03:18:35.516Z,21.86
2022-09-05T03:21:30.426Z,21.80
2022-09-05T03:24:15.900Z,21.77
2022-09-05T03:27:16.292Z,21.87
2022-09-05T03:29:58.713Z,22.06
2022-09-05T03:32:49.910Z,21.77
2022-09-05T03:35:25.505Z,21.74
2022-09-05T03:38:02.352Z,21.99
2022-09-05T03:40:37.930Z,22.00
2022-09-05T03:43:34.607Z,22.08
2022-09-05T03:46:04.316Z,21.62
2022-09-05T03:48:42.860Z,21.70
2022-09-05T03:57:18.318Z,21.73
2022-09-05T03:57:21.026Z,21.88
2022-09-05T03:57:42.310Z,22.01
2022-09-05T04:00:20.990Z,21.89
2022-09-05T04:08:06.182Z,21.90
2022-09-05T04:08:15.371Z,22.37
2022-09-05T04:09:49.431Z,22.13
2022-09-05T04:12:28.334Z,22.01
2022-09-05T04:15:15.096Z,21.85
2022-09-05T04:17:52.618Z,21.96
2022-09-05T04:20:43.344Z,22.10
2022-09-05T04:23:18.910Z,22.14
2022-09-05T04:26:11.264Z,22.02
2022-09-05T04:28:53.593Z,22.09
2022-09-05T04:31:31.933Z,22.25
2022-09-05T04:34:53.644Z,22.37
2022-09-05T04:37:48.567Z,21.99
2022-09-05T04:40:33.058Z,21.71
2022-09-05T04:43:12.197Z,21.92
2022-09-05T04:45:44.815Z,21.93
2022-09-05T04:48:15.827Z,21.64
2022-09-05T04:51:03.954Z,21.50
2022-09-05T04:53:42.101Z,21.18
2022-09-05T04:56:17.141Z,21.21
2022-09-05T05:00:41.111Z,20.63
2022-09-05T05:06:01.308Z,20.85
2022-09-05T05:06:12.753Z,20.82
2022-09-05T05:07:50.638Z,21.12
2022-09-05T05:13:51.200Z,20.07
2022-09-05T05:18:02.713Z,19.63
2022-09-05T05:18:14.370Z,18.98
2022-09-05T05:19:34.068Z,20.12
2022-09-05T05:22:04.634Z,19.53
2022-09-05T05:24:34.954Z,19.55
2022-09-05T05:27:27.874Z,19.56
2022-09-05T05:30:00.370Z,19.84
2022-09-05T05:32:45.475Z,20.40
2022-09-05T05:35:15.872Z,20.45
2022-09-05T05:38:25.115Z,20.36
2022-09-05T05:41:05.490Z,20.10
2022-09-05T05:43:37.961Z,19.81
2022-09-05T05:46:04.850Z,19.81
2022-09-05T05:48:39.635Z,20.04
2022-09-05T05:51:44.112Z,20.82
2022-09-05T05:54:28.719Z,21.16
2022-09-05T05:57:19.861Z,21.19
2022-09-05T05:59:59.094Z,21.50
2022-09-05T06:02:39.050Z,21.59
2022-09-05T06:05:33.304Z,20.94
2022-09-05T06:12:01.184Z,21.33
2022-09-05T06:15:03.787Z,21.29
2022-09-05T06:15:09.153Z,21.10
2022-09-05T06:17:59.457Z,21.21
2022-09-05T06:22:05.431Z,21.05
2022-09-05T06:23:39.192Z,21.25
2022-09-05T06:26:24.794Z,21.75
2022-09-05T06:28:56.808Z,21.80
2022-09-05T06:31:29.758Z,21.80
2022-09-05T06:34:00.456Z,22.27
2022-09-05T06:36:54.554Z,22.87
2022-09-05T06:39:58.493Z,22.97
2022-09-05T06:42:46.596Z,23.10
2022-09-05T06:45:58.838Z,23.38
2022-09-05T06:49:30.514Z,23.19
2022-09-05T06:52:28.218Z,22.20
2022-09-05T06:55:05.073Z,22.48
2022-09-05T06:57:53.372Z,23.27
2022-09-05T07:00:40.410Z,23.02
2022-09-05T07:03:19.081Z,22.64
2022-09-05T07:05:56.603Z,23.09
2022-09-05T07:08:39.216Z,23.02
2022-09-05T07:11:15.621Z,23.16
2022-09-05T07:13:55.791Z,22.91
2022-09-05T07:16:38.370Z,22.99
2022-09-05T07:19:26.735Z,23.30
2022-09-05T07:22:18.402Z,23.06
2022-09-05T07:25:18.325Z,24.00
2022-09-05T07:28:29.705Z,23.35
2022-09-05T07:30:46.729Z,23.73
2022-09-05T07:33:19.311Z,22.92
2022-09-05T07:35:46.036Z,23.92
2022-09-05T07:38:21.308Z,24.46
2022-09-05T07:40:56.292Z,23.43
2022-09-05T07:43:33.293Z,24.05
2022-09-05T07:46:11.544Z,24.33
2022-09-05T07:48:46.417Z,24.41
2022-09-05T07:56:55.619Z,24.11
2022-09-05T07:57:09.217Z,24.03
2022-09-05T08:00:02.430Z,26.01
2022-09-05T08:02:28.909Z,25.02
2022-09-05T08:05:02.368Z,25.35
2022-09-05T08:07:46.633Z,26.69
2022-09-05T08:10:20.795Z,27.65
2022-09-05T08:13:24.281Z,26.69
2022-09-05T08:16:13.594Z,26.96
2022-09-05T08:19:01.804Z,25.75
2022-09-05T08:21:42.024Z,27.02
2022-09-05T08:24:15.689Z,27.27
2022-09-05T08:27:05.935Z,26.04
2022-09-05T08:29:48.266Z,26.65
2022-09-05T08:32:49.047Z,26.39
2022-09-05T08:35:26.691Z,26.88
2022-09-05T08:37:54.418Z,27.46
2022-09-05T08:40:37.173Z,26.62
2022-09-05T08:46:35.274Z,27.40
2022-09-05T08:46:42.369Z,27.75
2022-09-05T08:49:32.382Z,27.96
2022-09-05T08:52:18.614Z,27.04
2022-09-05T08:55:06.240Z,27.16
2022-09-05T08:57:45.321Z,27.31
2022-09-05T09:00:20.652Z,26.81
2022-09-05T09:02:57.201Z,26.10
2022-09-05T09:06:08.490Z,27.21
2022-09-05T09:09:13.608Z,27.72
2022-09-05T09:12:05.887Z,27.08
2022-09-05T09:14:41.901Z,26.56
2022-09-05T09:17:21.273Z,26.91
2022-09-05T09:20:09.776Z,27.21
2022-09-05T09:22:52.102Z,26.98
2022-09-05T09:25:31.910Z,26.90
2022-09-05T09:28:48.539Z,27.14
2022-09-05T09:30:59.260Z,27.63
2022-09-05T09:33:44.518Z,26.53
2022-09-05T09:36:39.369Z,26.71
2022-09-05T09:39:37.172Z,26.82
2022-09-05T09:42:32.924Z,27.23
2022-09-05T09:45:29.522Z,26.63
2022-09-05T09:48:33.548Z,27.15
2022-09-05T09:51:12.271Z,27.10
2022-09-05T09:53:38.722Z,27.28
2022-09-05T09:56:20.178Z,28.05
2022-09-05T09:59:29.298Z,27.62
2022-09-05T10:05:16.615Z,27.65
2022-09-05T10:10:45.321Z,27.26
2022-09-05T10:10:45.726Z,27.33
2022-09-05T10:11:51.421Z,27.07
2022-09-05T10:14:49.519Z,26.97
2022-09-05T10:17:57.040Z,27.67
2022-09-05T10:20:53.903Z,27.95
2022-09-05T10:23:52.339Z,27.43
2022-09-05T10:26:48.046Z,27.68
2022-09-05T10:29:53.752Z,27.76
2022-09-05T10:35:10.780Z,27.77
2022-09-05T10:35:42.391Z,27.40
2022-09-05T10:38:34.376Z,27.28
2022-09-05T10:41:22.058Z,27.28
2022-09-05T10:44:02.943Z,28.41
2022-09-05T10:46:52.052Z,28.19
2022-09-05T10:49:30.189Z,28.17
2022-09-05T10:52:03.521Z,27.82
2022-09-05T10:54:48.526Z,27.07
2022-09-05T10:57:31.527Z,28.15
2022-09-05T11:02:24.378Z,27.78
2022-09-05T11:03:22.695Z,28.26
2022-09-05T11:05:58.254Z,27.96
2022-09-05T11:08:31.559Z,28.24
2022-09-05T11:11:26.018Z,28.09
2022-09-05T11:14:00.757Z,28.80
2022-09-05T11:16:36.171Z,29.11
2022-09-05T11:19:32.550Z,28.38
2022-09-05T11:22:22.250Z,28.84
2022-09-05T11:24:55.797Z,28.20
2022-09-05T11:27:54.747Z,28.78
2022-09-05T11:30:30.366Z,28.41
2022-09-05T11:36:56.519Z,28.29
2022-09-05T11:39:56.166Z,28.36
2022-09-05T11:39:57.726Z,28.63
2022-09-05T11:42:02.131Z,29.18
2022-09-05T11:44:35.684Z,29.09
2022-09-05T11:47:30.123Z,29.09
2022-09-05T11:50:35.713Z,28.22
2022-09-05T11:53:05.217Z,28.45
2022-09-05T11:56:05.980Z,28.64
2022-09-05T11:58:53.834Z,29.11
2022-09-05T12:02:16.882Z,29.15
2022-09-05T12:05:49.689Z,29.55
2022-09-05T12:08:20.771Z,29.68
2022-09-05T12:11:11.339Z,30.00
2022-09-05T12:13:42.522Z,29.49
2022-09-05T12:16:36.463Z,29.63
2022-09-05T12:19:22.989Z,29.56
2022-09-05T12:22:08.769Z,28.62
2022-09-05T12:25:26.450Z,29.25
2022-09-05T12:27:46.193Z,29.04
2022-09-05T12:30:21.945Z,29.24
2022-09-05T12:36:02.626Z,29.08
2022-09-05T12:40:59.476Z,29.33
2022-09-05T12:41:42.326Z,29.04
2022-09-05T12:44:34.840Z,29.85
2022-09-05T12:46:23.566Z,29.06
2022-09-05T12:48:50.721Z,30.03
2022-09-05T12:51:45.750Z,30.12
2022-09-05T12:54:24.541Z,28.97
2022-09-05T13:02:18.656Z,29.35
2022-09-05T13:03:06.815Z,29.99
2022-09-05T13:03:28.428Z,30.05
2022-09-05T13:06:05.321Z,30.30
2022-09-05T13:09:01.934Z,29.76
2022-09-05T13:14:55.450Z,29.80
2022-09-05T13:14:57.341Z,30.09
2022-09-05T13:17:14.202Z,30.62
2022-09-05T13:19:50.988Z,29.72
2022-09-05T13:22:22.226Z,29.89
2022-09-05T13:25:12.914Z,30.13
2022-09-05T13:27:56.492Z,30.48
2022-09-05T13:33:49.113Z,29.54
2022-09-05T13:38:05.482Z,30.34
2022-09-05T13:38:15.621Z,30.13
2022-09-05T13:39:04.604Z,30.44
2022-09-05T13:41:41.881Z,30.90
2022-09-05T13:44:25.581Z,30.73
2022-09-05T13:46:58.327Z,30.14
2022-09-05T13:49:31.709Z,30.33
2022-09-05T13:52:05.609Z,30.35
2022-09-05T13:54:42.315Z,30.13
2022-09-05T13:57:31.758Z,30.41
2022-09-05T14:00:26.815Z,30.44
2022-09-05T14:06:45.180Z,29.78
2022-09-05T14:09:40.962Z,29.26
2022-09-05T14:12:37.784Z,29.35
2022-09-05T14:15:26.209Z,29.85
2022-09-05T14:18:21.834Z,29.93
2022-09-05T14:21:17.141Z,30.54
2022-09-05T14:23:53.820Z,29.51
2022-09-05T14:26:34.509Z,29.05
2022-09-05T14:29:09.812Z,29.74
2022-09-05T14:37:39.711Z,30.79
2022-09-05T14:37:45.331Z,30.00
2022-09-05T14:38:38.121Z,29.03
2022-09-05T14:41:43.185Z,29.36
2022-09-05T14:44:43.822Z,30.80
2022-09-05T14:47:53.586Z,30.29
2022-09-05T14:50:27.629Z,30.07
2022-09-05T14:56:57.810Z,30.23
2022-09-05T15:02:46.291Z,30.00
2022-09-05T15:02:52.912Z,30.27
2022-09-05T15:07:01.683Z,29.17
2022-09-05T15:12:18.912Z,30.33
2022-09-05T15:12:33.154Z,30.23
2022-09-05T15:15:13.967Z,29.95
2022-09-05T15:17:48.600Z,29.46
2022-09-05T15:20:28.550Z,29.90
2022-09-05T15:22:57.610Z,30.39
2022-09-05T15:25:26.963Z,30.32
2022-09-05T15:27:54.614Z,30.04
2022-09-05T15:30:35.975Z,29.63
2022-09-05T15:33:14.678Z,30.03
2022-09-05T15:35:44.210Z,29.70
2022-09-05T15:38:48.954Z,29.18
2022-09-05T15:41:27.861Z,29.59
2022-09-05T15:43:58.303Z,29.64
2022-09-05T15:47:06.000Z,30.04
2022-09-05T15:49:51.212Z,29.85
2022-09-05T15:52:17.634Z,29.83
2022-09-05T15:54:53.740Z,30.34
2022-09-05T15:57:26.712Z,30.24
2022-09-05T15:59:58.767Z,29.59
2022-09-05T16:02:26.705Z,29.74
2022-09-05T16:10:27.487Z,28.91
2022-09-05T16:10:42.216Z,28.15
2022-09-05T16:12:14.370Z,29.58
2022-09-05T16:15:10.423Z,29.48
2022-09-05T16:23:18.081Z,29.19
2022-09-05T16:23:23.589Z,29.19
2022-09-05T16:23:51.094Z,29.29
2022-09-05T16:26:25.440Z,29.54
2022-09-05T16:29:01.959Z,29.08
2022-09-05T16:31:37.467Z,29.20
2022-09-05T16:34:11.947Z,29.27
2022-09-05T16:37:08.602Z,28.65
2022-09-05T16:39:40.512Z,28.49
2022-09-05T16:42:46.830Z,28.67
2022-09-05T16:45:14.157Z,28.69
2022-09-05T16:48:16.247Z,28.99
2022-09-05T16:51:15.133Z,29.01
2022-09-05T16:53:59.079Z,29.19
2022-09-05T16:56:41.880Z,28.90
2022-09-05T16:59:19.939Z,29.01
2022-09-05T17:02:34.116Z,28.49
2022-09-05T17:05:12.735Z,28.79
2022-09-05T17:07:52.301Z,28.96
2022-09-05T17:10:25.788Z,29.04
2022-09-05T17:12:53.986Z,28.45
2022-09-05T17:15:26.173Z,28.37
2022-09-05T17:18:19.940Z,28.41
2022-09-05T17:20:54.467Z,28.42
2022-09-05T17:29:15.274Z,28.82
2022-09-05T17:29:41.334Z,28.48
2022-09-05T17:32:39.561Z,27.89
2022-09-05T17:35:34.059Z,28.06
2022-09-05T17:38:22.395Z,28.35
2022-09-05T17:41:19.637Z,28.15
2022-09-05T17:43:56.232Z,27.69
2022-09-05T17:46:31.621Z,27.95
2022-09-05T17:49:18.726Z,27.63
2022-09-05T17:51:53.966Z,26.61
2022-09-05T17:54:31.911Z,27.84
2022-09-05T17:57:27.414Z,27.94
2022-09-05T18:00:11.182Z,27.81
2022-09-05T18:02:54.426Z,28.19
2022-09-05T18:05:58.099Z,28.40
2022-09-05T18:08:52.887Z,28.04
2022-09-05T18:11:25.392Z,27.53
2022-09-05T18:14:03.040Z,27.11
2022-09-05T18:16:45.407Z,27.18
2022-09-05T18:19:34.661Z,25.97
2022-09-05T18:22:21.574Z,25.36
2022-09-05T18:25:13.840Z,24.91
2022-09-05T18:28:05.232Z,24.36
2022-09-05T18:33:55.883Z,24.67
2022-09-05T18:36:25.464Z,24.24
2022-09-05T18:39:23.460Z,23.45
2022-09-05T18:42:04.207Z,23.96
2022-09-05T18:44:59.628Z,24.37
2022-09-05T18:47:32.960Z,23.59
2022-09-05T18:50:26.197Z,23.43
2022-09-05T18:53:10.089Z,24.35
2022-09-05T18:56:13.818Z,24.13
2022-09-05T18:58:51.695Z,23.82
2022-09-05T19:01:46.443Z,23.21
2022-09-05T19:04:39.078Z,24.33
2022-09-05T19:07:19.209Z,24.30
2022-09-05T19:10:33.728Z,24.26
2022-09-05T19:13:00.204Z,24.12
2022-09-05T19:15:30.987Z,24.23
2022-09-05T19:18:25.878Z,23.82
2022-09-05T19:20:55.581Z,23.96
2022-09-05T19:23:26.097Z,24.07
2022-09-05T19:25:56.193Z,24.06
2022-09-05T19:33:18.429Z,23.94
2022-09-05T19:36:57.696Z,23.82
2022-09-05T19:37:24.320Z,23.45
2022-09-05T19:37:30.125Z,23.66
2022-09-05T19:44:41.318Z,24.48
2022-09-05T19:47:48.106Z,23.67
2022-09-05T19:47:51.343Z,24.28
2022-09-05T19:48:20.348Z,22.80
2022-09-05T19:50:47.321Z,23.34
2022-09-05T19:53:17.199Z,23.35
2022-09-05T19:55:44.953Z,23.71
2022-09-05T19:58:19.821Z,23.82
2022-09-05T20:01:00.300Z,23.78
2022-09-05T20:03:35.475Z,24.10
2022-09-05T20:06:24.853Z,23.82
2022-09-05T20:09:17.825Z,23.97
2022-09-05T20:11:49.873Z,24.43
2022-09-05T20:14:23.776Z,24.41
2022-09-05T20:16:54.952Z,23.94
2022-09-05T20:19:34.610Z,23.95
2022-09-05T20:22:40.417Z,24.43
2022-09-05T20:24:54.589Z,24.27
2022-09-05T20:27:27.386Z,24.61
2022-09-05T20:30:03.772Z,23.90
2022-09-05T20:32:39.852Z,24.24
2022-09-05T20:37:18.485Z,23.94
2022-09-05T20:43:25.123Z,24.62
2022-09-05T20:43:32.029Z,23.65
2022-09-05T20:44:09.005Z,24.03
2022-09-05T20:50:42.919Z,23.97
2022-09-05T20:54:14.768Z,23.82
2022-09-05T20:54:20.331Z,23.86
2022-09-05T20:55:40.455Z,24.13
2022-09-05T20:58:24.524Z,24.29
2022-09-05T21:01:20.370Z,24.55
2022-09-05T21:03:52.816Z,24.45
2022-09-05T21:06:45.808Z,23.75
2022-09-05T21:09:23.795Z,24.07
2022-09-05T21:11:53.297Z,23.24
2022-09-05T21:14:22.357Z,24.05
2022-09-05T21:16:58.472Z,23.88
2022-09-05T21:19:34.359Z,23.83
2022-09-05T21:22:20.143Z,24.09
2022-09-05T21:24:47.287Z,24.42
2022-09-05T21:27:24.299Z,23.90
2022-09-05T21:29:58.597Z,24.32
2022-09-05T21:32:27.956Z,24.32
2022-09-05T21:35:15.457Z,24.14
2022-09-05T21:37:53.536Z,23.07
2022-09-05T21:40:21.229Z,23.58
2022-09-05T21:47:33.100Z,23.67
2022-09-05T21:47:49.747Z,24.03
2022-09-05T21:48:21.670Z,23.65
2022-09-05T21:50:53.480Z,24.13
2022-09-05T21:59:13.468Z,23.67
2022-09-05T21:59:22.284Z,23.60
2022-09-05T21:59:56.324Z,23.94
2022-09-05T22:02:14.743Z,23.93
2022-09-05T22:04:42.044Z,23.63
2022-09-05T22:07:21.748Z,23.59
2022-09-05T22:09:59.487Z,24.27
2022-09-05T22:12:35.711Z,24.02
2022-09-05T22:15:28.445Z,24.23
2022-09-05T22:17:54.210Z,24.15
2022-09-05T22:20:25.103Z,24.29
2022-09-05T22:22:56.203Z,24.11
2022-09-05T22:25:28.556Z,23.96
2022-09-05T22:28:03.396Z,23.96
2022-09-05T22:30:29.827Z,24.06
2022-09-05T22:32:56.369Z,23.60
2022-09-05T22:35:28.473Z,23.46
2022-09-05T22:38:11.141Z,23.65
2022-09-05T22:40:40.532Z,23.28
2022-09-05T22:43:09.003Z,23.52
2022-09-05T22:45:36.975Z,23.73
2022-09-05T22:48:12.446Z,23.30
2022-09-05T22:50:40.231Z,23.44
2022-09-05T22:53:08.527Z,23.02
2022-09-05T22:55:36.224Z,22.74
2022-09-05T22:58:04.060Z,23.10
2022-09-05T23:00:30.606Z,23.37
2022-09-05T23:03:01.713Z,22.71
2022-09-05T23:05:28.509Z,23.44
2022-09-05T23:08:02.625Z,23.06
2022-09-05T23:10:30.539Z,22.55
2022-09-05T23:12:57.139Z,23.30
2022-09-05T23:15:24.234Z,23.42
2022-09-05T23:17:55.573Z,23.13
2022-09-05T23:20:23.180Z,23.19
2022-09-05T23:22:49.635Z,22.89
2022-09-05T23:25:16.459Z,22.06
2022-09-05T23:27:43.078Z,23.33
2022-09-05T23:30:10.400Z,22.69
2022-09-05T23:32:37.123Z,22.43
2022-09-05T23:35:03.782Z,22.25
2022-09-05T23:37:30.202Z,23.29
2022-09-05T23:39:56.696Z,22.64
2022-09-05T23:42:23.176Z,21.90
2022-09-05T23:44:49.605Z,22.26
2022-09-05T23:47:16.022Z,23.25
2022-09-05T23:49:42.490Z,23.35
2022-09-05T23:52:08.911Z,23.11
2022-09-05T23:54:35.340Z,23.16
2022-09-05T23:57:01.754Z,23.07
2022-09-05T23:59:28.953Z,23.34
